YHID

Details ICAO YHID (HID)
Name Horn Island
Region Australia
Timezone Australia/Brisbane (UTC+10.0)
Plans Departing 11
Arriving 19
Stats Elevation 43 ft / 13 m (AMSL)
Location -10.585660° 142.289969°
Runways 2
Magnetic Variation 4.906° E
Sunrise 2017-12-18 20:06:49 UTC / 2017-12-19 06:06:49 Local
Sunset 2017-12-19 08:51:22 UTC / 2017-12-19 18:51:22 Local
Advertisement - Login to hide

Runways

ID Width Length Bearing (true) Bearing (mag) Surface Threshold Offset Overrun Length
08 102 ft / 31 m 4,565 ft / 1,392 m 84.80° 79.89° Asphalt 0 ft / 0 m 66 ft / 20 m
14 75 ft / 23 m 4,082 ft / 1,244 m 139.90° 134.99° Asphalt 0 ft / 0 m 190 ft / 58 m
26 102 ft / 31 m 4,565 ft / 1,392 m 264.80° 259.89° Asphalt 0 ft / 0 m 200 ft / 61 m
32 75 ft / 23 m 4,082 ft / 1,244 m 319.90° 314.99° Asphalt 0 ft / 0 m 0 ft / 0 m

Map

Weather


0- 5 10 15 20 25 30 35+ Temperature / ° C

Clouds and Precipitation
Forecast for 2017-12-18 18:00 UTC. Updated an hour ago

Ground ~20,000 ft ~40,000 ft Winds

METAR

YHID 181600Z AUTO 13004KT 9999 // SCT027 SCT044 BKN051 28/23 Q1008

TAF

TAF YHID 181106Z 1812/1912 10008KT 9999 SCT025 FM181400 13008KT 9999 SCT022 FM182300 08012KT 9999 SCT030 FM190900 10008KT 9999 SCT025

Frequencies

Unicom 119.60 MHz ACTIVATE LIGHTS ONLY MULT
Unicom 126.50 MHz Horn Island MULT
Unicom 120.30 MHz BRISBANE CENTRE MULT
Warning: Do not use this data for real-world aviation or navigation. No guarantee of current accuracy is given.